Latest Weather Observations for Mallacoota

IDV60801

Issued at 5:05 pm EST Wednesday 16 April 2014 (issued every 30 minutes, with the page automatically refreshed every 10 minutes)

About weather observations | Map of weather stations | Latest weather observations for VIC | Other Formats
Station Details ID: 084084 Name: MALLACOOTA Lat: -37.60 Lon: 149.73 Height: 22.0 m
Data from the previous 72 hours. | See also: Recent months at Mallacoota
Date/Time
EST
Temp
°C
App
Temp
°C
Dew
Point
Rel
Hum
%
Delta-T
°C
Wind Press
QNH
hPa
Press
MSL
hPa
Rain
since 9 am
mm
Dir
 
Spd
km/h
Gust
km/h
Spd
kts
Gust
kts
16/05:00pm 17.0 15.8 11.5 70 3.0 SSW 9 15 5 8 1019.3 - 0.0
16/04:30pm 17.4 16.1 11.4 68 3.3 SSW 9 15 5 8 1019.2 - 0.0
16/04:00pm 17.9 15.9 11.5 66 3.5 SSW 13 19 7 10 1019.2 - 0.0
16/03:30pm 18.1 15.7 11.4 65 3.7 S 15 20 8 11 1019.3 - 0.0
16/03:00pm 18.2 15.8 11.3 64 3.7 S 15 19 8 10 1019.4 1019.3 0.0
16/02:30pm 19.0 16.9 11.3 61 4.2 S 13 20 7 11 1019.5 - 0.0
16/02:00pm 18.4 16.2 10.7 61 4.2 S 13 19 7 10 1019.5 - 0.0
16/01:30pm 18.7 16.9 11.0 61 4.2 S 11 15 6 8 1019.8 - 0.0
16/01:00pm 17.8 16.0 10.9 64 3.7 S 11 17 6 9 1019.9 - 0.0
16/12:30pm 17.7 16.5 10.3 62 3.9 S 7 11 4 6 1020.2 - 0.0
16/12:00pm 17.2 15.4 10.8 66 3.4 S 11 17 6 9 1020.5 1020.4 0.0
16/11:30am 17.2 16.1 12.1 72 2.8 S 9 17 5 9 1020.8 - 0.0
16/11:00am 17.8 16.4 10.9 64 3.7 SW 9 13 5 7 1021.0 - 0.0
16/10:30am 18.1 16.5 11.4 65 3.7 W 11 17 6 9 1021.1 - 0.0
16/10:00am 17.3 15.5 10.9 66 3.4 W 11 19 6 10 1021.4 - 0.0
16/09:30am 16.0 13.9 11.0 72 2.7 W 13 17 7 9 1021.6 - 0.0
16/09:00am 14.8 12.9 10.4 75 2.3 WNW 11 19 6 10 1021.9 1021.8 0.2
16/08:30am 14.5 12.3 10.7 78 2.0 W 13 22 7 12 1022.0 - 0.2
16/08:00am 13.9 12.6 10.1 78 2.0 WSW 7 11 4 6 1021.9 - 0.2
16/07:30am 13.5 11.7 9.6 77 2.0 WNW 9 17 5 9 1021.5 - 0.2
16/07:00am 13.4 11.3 9.6 78 1.9 W 11 17 6 9 1021.3 - 0.2
16/06:30am 13.3 11.2 9.7 79 1.8 W 11 13 6 7 1021.0 - 0.2
16/06:00am 13.1 11.0 9.7 80 1.7 W 11 17 6 9 1020.9 1020.8 0.2
16/05:30am 13.2 11.1 9.8 80 1.7 W 11 17 6 9 1020.9 - 0.2
16/05:00am 13.3 11.2 9.9 80 1.7 W 11 17 6 9 1020.9 - 0.2
16/04:30am 13.2 11.2 10.0 81 1.6 W 11 17 6 9 1021.0 - 0.2
16/04:00am 13.2 10.8 10.2 82 1.6 W 13 17 7 9 1021.0 - 0.2
16/03:30am 13.4 11.5 10.4 82 1.6 WNW 11 17 6 9 1021.0 - 0.2
16/03:00am 13.6 11.7 10.6 82 1.6 W 11 17 6 9 1021.0 1020.9 0.2
16/02:30am 13.5 12.1 10.9 84 1.4 W 9 15 5 8 1021.2 - 0.2
16/02:00am 13.4 11.6 10.9 85 1.3 WNW 11 15 6 8 1021.5 - 0.2
16/01:30am 13.3 11.5 11.0 86 1.2 WNW 11 15 6 8 1021.9 - 0.2
16/01:00am 13.2 11.8 10.9 86 1.2 WNW 9 15 5 8 1022.2 - 0.2
16/12:30am 13.7 11.9 10.9 83 1.5 WNW 11 15 6 8 1022.3 - 0.2
16/12:00am 13.4 12.4 10.9 85 1.3 W 7 15 4 8 1022.5 1022.5 0.2
 
Date/Time
EST
Temp
°C
App
Temp
°C
Dew
Point
Rel
Hum
%
Delta-T
°C
Wind Press
QNH
hPa
Press
MSL
hPa
Rain
since 9 am
mm
Dir
 
Spd
km/h
Gust
km/h
Spd
kts
Gust
kts
15/11:30pm 13.5 12.0 10.7 83 1.5 W 9 15 5 8 1022.7 - 0.2
15/11:00pm 13.5 12.0 10.7 83 1.5 W 9 13 5 7 1022.9 - 0.2
15/10:30pm 13.2 11.7 10.7 85 1.3 W 9 13 5 7 1023.0 - 0.2
15/10:00pm 13.3 11.9 11.0 86 1.2 WNW 9 13 5 7 1023.1 - 0.2
15/09:30pm 13.1 11.7 11.0 87 1.1 W 9 13 5 7 1023.1 - 0.2
15/09:00pm 13.4 12.4 10.9 85 1.3 W 7 13 4 7 1023.1 1023.1 0.2
15/08:30pm 14.1 12.7 10.9 81 1.7 W 9 13 5 7 1023.0 - 0.2
15/08:00pm 14.2 12.8 10.8 80 1.8 WNW 9 11 5 6 1022.9 - 0.2
15/07:30pm 14.8 13.3 10.4 75 2.3 WSW 9 15 5 8 1023.0 - 0.2
15/07:00pm 14.9 13.6 9.9 72 2.6 WSW 7 11 4 6 1022.9 - 0.2
15/06:30pm 16.9 13.5 9.1 60 4.0 S 17 28 9 15 1022.7 - 0.2
15/06:00pm 16.8 14.0 10.0 64 3.6 S 15 22 8 12 1022.5 1022.5 0.2
15/05:30pm 17.1 13.9 9.8 62 3.8 S 17 24 9 13 1022.3 - 0.2
15/05:00pm 17.2 13.2 9.1 59 4.2 S 20 30 11 16 1022.1 - 0.2
15/04:30pm 17.3 13.2 10.0 62 3.9 S 22 33 12 18 1022.0 - 0.2
15/04:00pm 17.2 14.2 10.6 65 3.5 S 17 24 9 13 1021.9 - 0.2
15/03:30pm 17.6 13.8 9.8 60 4.1 S 20 32 11 17 1021.8 - 0.2
15/03:00pm 18.0 14.7 9.4 57 4.5 SSW 17 24 9 13 1021.9 1021.8 0.2
15/02:30pm 18.1 14.5 10.5 61 4.1 S 20 30 11 16 1021.9 - 0.2
15/02:00pm 17.4 12.8 9.8 61 4.0 S 24 30 13 16 1021.9 - 0.2
15/01:30pm 17.9 13.8 10.0 60 4.2 S 22 35 12 19 1021.8 - 0.2
15/01:00pm 17.6 13.2 10.5 63 3.8 S 24 35 13 19 1021.9 - 0.2
15/12:30pm 17.4 13.0 10.5 64 3.7 S 24 35 13 19 1022.1 - 0.2
15/12:00pm 17.3 12.4 10.0 62 3.8 S 26 35 14 19 1022.5 1022.5 0.2
15/11:30am 17.2 13.4 11.0 67 3.3 S 22 35 12 19 1022.7 - 0.2
15/11:00am 16.7 12.3 11.6 72 2.8 S 26 35 14 19 1022.8 - 0.2
15/10:30am 15.1 14.2 13.8 92 0.7 SW 11 15 6 8 1023.0 - 0.2
15/10:00am 14.4 12.6 13.3 93 0.6 W 15 22 8 12 1023.0 - 0.2
15/09:30am 14.2 12.7 13.2 94 0.6 W 13 19 7 10 1022.9 - 0.2
15/09:00am 13.6 12.4 12.7 94 0.5 W 11 20 6 11 1023.1 1023.1 4.8
15/08:30am 13.1 11.3 12.2 94 0.5 W 13 22 7 12 1022.8 - 4.4
15/08:00am 13.0 11.6 12.1 94 0.5 WNW 11 19 6 10 1022.7 - 3.4
15/07:30am 12.7 10.7 11.6 93 0.6 W 13 20 7 11 1022.6 - 3.0
15/07:00am 12.7 10.4 11.6 93 0.6 W 15 22 8 12 1022.4 - 2.8
15/06:30am 12.7 10.7 11.6 93 0.6 W 13 22 7 12 1022.0 - 2.0
15/06:00am 12.9 11.4 11.8 93 0.6 W 11 19 6 10 1022.0 1022.0 2.0
15/05:30am 12.9 11.7 11.6 92 0.7 W 9 15 5 8 1021.9 - 1.6
15/05:00am 12.9 11.3 11.6 92 0.7 WNW 11 17 6 9 1021.6 - 1.2
15/04:30am 12.8 10.8 11.5 92 0.7 W 13 20 7 11 1021.6 - 1.0
15/04:00am 13.1 11.2 11.7 91 0.7 W 13 20 7 11 1021.5 - 1.0
15/03:30am 13.4 11.4 11.5 88 1.0 WSW 13 22 7 12 1021.6 - 0.8
15/03:00am 13.7 11.5 10.9 83 1.5 W 13 22 7 12 1021.4 1021.3 0.2
15/02:30am 13.6 11.0 10.6 82 1.6 W 15 22 8 12 1021.5 - 0.2
15/02:00am 13.7 11.0 10.5 81 1.7 W 15 22 8 12 1021.8 - 0.2
15/01:30am 13.8 11.9 10.6 81 1.7 W 11 19 6 10 1022.0 - 0.2
15/01:00am 14.2 12.5 10.0 76 2.2 W 9 15 5 8 1022.2 - 0.2
15/12:30am 14.0 11.6 10.0 77 2.1 WNW 13 20 7 11 1022.0 - 0.2
15/12:00am 13.9 11.5 10.1 78 2.0 W 13 20 7 11 1022.2 1022.2 0.2
 
Date/Time
EST
Temp
°C
App
Temp
°C
Dew
Point
Rel
Hum
%
Delta-T
°C
Wind Press
QNH
hPa
Press
MSL
hPa
Rain
since 9 am
mm
Dir
 
Spd
km/h
Gust
km/h
Spd
kts
Gust
kts
14/11:30pm 13.8 11.4 10.2 79 1.9 WNW 13 19 7 10 1022.1 - 0.2
14/11:00pm 13.8 11.1 10.4 80 1.8 W 15 20 8 11 1022.5 - 0.2
14/10:30pm 13.5 11.2 10.3 81 1.7 W 13 20 7 11 1022.6 - 0.2
14/10:00pm 13.3 11.0 10.3 82 1.6 WNW 13 20 7 11 1022.7 - 0.2
14/09:30pm 13.2 11.2 10.2 82 1.6 WNW 11 17 6 9 1022.7 - 0.2
14/09:00pm 13.5 11.5 10.1 80 1.8 W 11 17 6 9 1022.7 1022.7 0.2
14/08:30pm 14.1 12.1 10.3 78 2.0 WNW 11 15 6 8 1022.6 - 0.2
14/08:00pm 14.0 12.1 10.4 79 1.9 W 11 19 6 10 1022.7 - 0.2
14/07:30pm 14.2 12.4 10.8 80 1.8 WNW 11 15 6 8 1022.6 - 0.2
14/07:00pm 14.6 13.6 11.0 79 1.9 W 7 11 4 6 1022.5 - 0.2
14/06:30pm 15.2 14.2 11.0 76 2.2 WSW 7 11 4 6 1022.2 - 0.2
14/06:00pm 15.7 14.7 10.9 73 2.5 WSW 7 11 4 6 1021.9 1021.8 0.2
14/05:30pm 16.0 14.5 10.5 70 2.9 SW 9 13 5 7 1021.6 - 0.2
14/05:00pm 16.3 14.1 10.8 70 2.9 SW 13 19 7 10 1021.6 - 0.2
14/04:30pm 16.6 14.8 10.9 69 3.1 SW 11 15 6 8 1021.5 - 0.2
14/04:00pm 17.0 14.4 10.6 66 3.4 SSW 15 24 8 13 1021.5 - 0.2
14/03:30pm 16.9 13.7 10.1 64 3.6 S 17 26 9 14 1021.4 - 0.2
14/03:00pm 16.9 13.3 10.5 66 3.4 S 20 30 11 16 1021.5 1021.4 0.2
14/02:30pm 17.3 14.9 11.3 68 3.3 S 15 26 8 14 1021.5 - 0.2
14/02:00pm 17.8 13.4 8.9 56 4.6 S 22 28 12 15 1021.5 - 0.2
14/01:30pm 18.4 15.5 11.0 62 4.0 S 17 28 9 15 1021.5 - 0.2
14/01:00pm 17.6 13.9 10.0 61 4.0 S 20 35 11 19 1021.7 - 0.2
14/12:30pm 17.3 14.6 10.2 63 3.8 SSW 15 24 8 13 1021.8 - 0.2
14/12:00pm 17.3 15.1 9.5 60 4.1 SW 11 19 6 10 1022.2 1022.2 0.2
14/11:30am 17.8 15.7 11.1 65 3.6 WSW 13 20 7 11 1022.4 - 0.2
14/11:00am 18.1 17.3 14.0 77 2.3 SW 11 17 6 9 1022.5 - 0.2
14/10:30am 15.7 14.9 12.8 83 1.6 W 9 15 5 8 1022.7 - 0.0
14/10:00am 15.2 14.5 13.2 88 1.1 W 9 17 5 9 1022.7 - 0.0
14/09:30am 14.6 13.9 13.1 91 0.8 W 9 15 5 8 1022.7 - 0.0
14/09:00am 14.0 12.8 12.7 92 0.7 W 11 22 6 12 1022.6 1022.6 3.2
14/08:30am 13.6 12.2 12.3 92 0.7 W 11 19 6 10 1022.5 - 3.2
14/08:00am 13.7 13.2 12.6 93 0.6 W 7 13 4 7 1022.2 - 3.2
14/07:30am 13.0 11.9 11.9 93 0.6 W 9 15 5 8 1022.0 - 3.2
14/07:00am 12.8 11.2 11.7 93 0.6 W 11 19 6 10 1021.4 - 3.2
14/06:30am 12.5 10.9 11.4 93 0.6 W 11 19 6 10 1021.4 - 3.2
14/06:00am 12.5 10.9 11.6 94 0.5 W 11 15 6 8 1021.4 1021.3 3.2
14/05:30am 12.4 10.0 11.3 93 0.6 W 15 24 8 13 1021.1 - 2.8
14/05:00am 12.5 10.5 11.6 94 0.5 W 13 19 7 10 1021.0 - 2.8
14/04:30am 12.4 10.3 11.3 93 0.6 W 13 17 7 9 1020.9 - 2.6
14/04:00am 12.7 11.1 11.6 93 0.6 W 11 15 6 8 1020.7 - 2.6
14/03:30am 12.7 11.5 11.6 93 0.6 WSW 9 13 5 7 1020.7 - 2.6
14/03:00am 12.7 11.5 11.6 93 0.6 WNW 9 13 5 7 1020.7 1020.6 2.4
14/02:30am 12.6 11.4 11.5 93 0.6 W 9 13 5 7 1020.7 - 2.4
14/02:00am 12.8 11.6 11.5 92 0.7 WSW 9 13 5 7 1020.9 - 2.4
14/01:30am 12.9 11.3 11.6 92 0.7 W 11 19 6 10 1021.2 - 1.2
14/01:00am 13.2 11.7 11.9 92 0.7 W 11 19 6 10 1021.2 - 1.2
14/12:30am 13.0 11.4 11.6 91 0.7 WSW 11 19 6 10 1021.1 - 0.6
14/12:00am 12.8 11.0 11.0 89 0.9 WNW 11 15 6 8 1021.0 1020.9 0.6
 
Date/Time
EST
Temp
°C
App
Temp
°C
Dew
Point
Rel
Hum
%
Delta-T
°C
Wind Press
QNH
hPa
Press
MSL
hPa
Rain
since 9 am
mm
Dir
 
Spd
km/h
Gust
km/h
Spd
kts
Gust
kts
13/11:30pm 12.9 11.5 10.8 87 1.1 W 9 17 5 9 1021.3 - 0.0
13/11:00pm 13.3 11.9 11.0 86 1.2 WNW 9 13 5 7 1021.4 - 0.0
13/10:30pm 13.6 11.8 10.9 84 1.4 W 11 15 6 8 1021.5 - 0.0
13/10:00pm 13.8 12.0 10.8 82 1.6 WSW 11 22 6 12 1021.5 - 0.0
13/09:30pm 14.8 13.1 9.8 72 2.6 WSW 9 17 5 9 1021.5 - 0.0
13/09:00pm 15.7 12.7 9.4 66 3.2 SW 15 22 8 12 1021.3 1021.2 0.0
13/08:30pm 16.1 12.2 10.8 71 2.8 S 22 39 12 21 1021.3 - 0.0
13/08:00pm 14.6 13.3 9.8 73 2.5 WSW 7 13 4 7 1021.1 - 0.0
13/07:30pm 15.0 12.9 9.8 71 2.7 WSW 11 17 6 9 1020.8 - 0.0
13/07:00pm 15.1 12.9 9.5 69 2.9 WSW 11 15 6 8 1020.6 - 0.0
13/06:30pm 15.4 12.8 9.5 68 3.1 SW 13 17 7 9 1020.4 - 0.0
13/06:00pm 16.5 13.1 10.6 68 3.1 SSW 19 32 10 17 1020.0 1019.9 0.0
13/05:30pm 16.4 13.2 9.8 65 3.5 SSW 17 28 9 15 1019.7 - 0.0

Other Formats:

Comma delimited format used in spreadsheet applications
http://www.bom.gov.au/fwo/IDV60801/IDV60801.94935.axf

JavaScript Object Notation format (JSON) in row-major order
http://www.bom.gov.au/fwo/IDV60801/IDV60801.94935.json